createdAt,value
2019-05-18T01:22:11.395Z,85.47
2019-05-18T01:27:18.437Z,85.20
2019-05-18T01:32:25.458Z,85.25
2019-05-18T01:37:32.542Z,85.25
2019-05-18T01:42:39.530Z,85.28
2019-05-18T01:47:46.592Z,85.31
2019-05-18T01:52:53.468Z,85.41
2019-05-18T01:58:00.429Z,85.41
2019-05-18T02:03:07.454Z,85.42
2019-05-18T02:08:14.461Z,85.42
2019-05-18T02:13:21.460Z,85.46
2019-05-18T02:18:29.439Z,85.54
2019-05-18T02:23:36.453Z,85.65
2019-05-18T02:28:43.451Z,85.65
2019-05-18T02:33:50.456Z,85.75
2019-05-18T02:38:57.427Z,85.72
2019-05-18T02:44:04.573Z,85.72
2019-05-18T02:49:11.442Z,85.79
2019-05-18T02:54:18.454Z,85.79
2019-05-18T02:59:25.442Z,85.88
2019-05-18T03:04:32.439Z,85.98
2019-05-18T03:09:39.599Z,85.89
2019-05-18T03:14:46.560Z,86.26
2019-05-18T03:19:53.573Z,86.26
2019-05-18T03:25:00.455Z,86.29
2019-05-18T03:30:07.623Z,86.29
2019-05-18T03:35:15.056Z,86.45
2019-05-18T03:40:22.422Z,86.45
2019-05-18T03:45:29.487Z,86.58
2019-05-18T03:50:36.582Z,86.63
2019-05-18T03:55:43.561Z,86.80
2019-05-18T04:00:50.466Z,86.90
2019-05-18T04:05:57.458Z,86.90
2019-05-18T04:11:04.427Z,86.90
2019-05-18T04:16:11.454Z,86.87
2019-05-18T04:21:18.443Z,86.87
2019-05-18T04:26:25.432Z,86.89
2019-05-18T04:31:32.774Z,86.80
2019-05-18T04:36:40.427Z,86.69
2019-05-18T04:41:47.437Z,86.58
2019-05-18T04:46:54.462Z,86.55
2019-05-18T04:52:01.436Z,86.50
2019-05-18T04:57:08.518Z,86.50
2019-05-18T05:02:15.528Z,86.63
2019-05-18T05:07:22.492Z,86.76
2019-05-18T05:12:31.115Z,86.99
2019-05-18T05:17:38.410Z,87.11
2019-05-18T05:22:45.431Z,87.20
2019-05-18T05:27:52.444Z,87.20
2019-05-18T05:32:59.579Z,86.98
2019-05-18T05:38:06.444Z,86.68
2019-05-18T05:43:13.579Z,86.68
2019-05-18T05:48:20.448Z,86.39
2019-05-18T05:53:27.476Z,86.12
2019-05-18T05:58:35.558Z,86.12
2019-05-18T06:03:42.595Z,85.36
2019-05-18T06:08:49.552Z,84.96
2019-05-18T06:13:56.527Z,84.96
2019-05-18T06:19:03.588Z,84.40
2019-05-18T06:24:10.463Z,83.72
2019-05-18T06:29:17.576Z,83.72
2019-05-18T06:34:24.492Z,82.93
2019-05-18T06:39:31.517Z,82.93
2019-05-18T06:44:38.520Z,82.65
2019-05-18T06:49:45.471Z,82.25
2019-05-18T06:54:52.875Z,81.96
2019-05-18T07:00:01.488Z,81.15
2019-05-18T07:05:08.598Z,81.09
2019-05-18T07:10:16.588Z,80.65
2019-05-18T07:15:24.054Z,80.69
2019-05-18T07:20:32.036Z,79.47
2019-05-18T07:25:39.240Z,79.47
2019-05-18T07:30:45.312Z,79.17
2019-05-18T07:35:51.290Z,77.91
2019-05-18T07:40:58.575Z,77.50
2019-05-18T07:46:08.657Z,78.16
2019-05-18T07:51:14.451Z,78.16
2019-05-18T07:56:21.472Z,76.67
2019-05-18T08:01:30.496Z,76.13
2019-05-18T08:06:37.579Z,76.08
2019-05-18T08:11:44.476Z,73.86
2019-05-18T08:16:51.470Z,73.93
2019-05-18T08:24:09.048Z,79.08
2019-05-18T08:29:16.270Z,73.81
2019-05-18T08:34:23.492Z,72.12
2019-05-18T08:39:30.434Z,71.68
2019-05-18T08:44:37.502Z,71.07
2019-05-18T08:49:44.501Z,70.89
2019-05-18T08:54:52.594Z,72.06
2019-05-18T08:59:59.440Z,69.96
2019-05-18T09:05:07.524Z,69.96
2019-05-18T09:10:14.597Z,69.72
2019-05-18T09:15:21.685Z,63.25
2019-05-18T09:20:28.476Z,61.36
2019-05-18T09:25:35.704Z,61.36
2019-05-18T09:30:42.865Z,57.57
2019-05-18T09:35:49.707Z,57.57
2019-05-18T09:40:57.122Z,56.14
2019-05-18T09:46:06.430Z,52.36
2019-05-18T09:51:13.478Z,51.98
2019-05-18T09:56:20.436Z,51.38
2019-05-18T10:01:27.456Z,49.87
2019-05-18T10:06:34.443Z,49.07
2019-05-18T10:11:41.520Z,48.50
2019-05-18T10:16:48.438Z,45.93
2019-05-18T10:21:55.595Z,44.07
2019-05-18T10:27:02.475Z,42.47
2019-05-18T10:32:09.441Z,42.47
2019-05-18T10:37:16.492Z,41.54
2019-05-18T10:42:23.599Z,41.54
2019-05-18T10:47:30.588Z,39.76
2019-05-18T10:52:37.477Z,39.43
2019-05-18T10:59:49.570Z,46.37
2019-05-18T11:04:56.536Z,40.24
2019-05-18T11:10:03.546Z,40.24
2019-05-18T11:15:12.119Z,39.30
2019-05-18T11:20:21.078Z,38.37
2019-05-18T11:25:28.389Z,36.59
2019-05-18T11:30:35.482Z,36.59
2019-05-18T11:35:42.740Z,36.48
2019-05-18T11:40:50.633Z,36.48
2019-05-18T11:45:57.503Z,35.82
2019-05-18T11:51:04.581Z,35.82
2019-05-18T11:56:11.578Z,35.57
2019-05-18T12:01:19.584Z,36.82
2019-05-18T12:06:26.592Z,36.69
2019-05-18T12:11:33.564Z,37.56
2019-05-18T12:16:41.612Z,35.45
2019-05-18T12:21:48.570Z,34.97
2019-05-18T12:26:57.053Z,36.22
2019-05-18T12:32:04.430Z,35.92
2019-05-18T12:37:13.254Z,35.92
2019-05-18T12:42:20.413Z,36.03
2019-05-18T12:47:28.601Z,37.01
2019-05-18T12:52:35.580Z,35.57
2019-05-18T13:03:02.907Z,35.88
2019-05-18T13:08:10.417Z,35.88
2019-05-18T13:13:17.449Z,36.30
2019-05-18T13:18:24.518Z,35.18
2019-05-18T13:23:31.549Z,34.27
2019-05-18T13:28:38.623Z,31.39
2019-05-18T13:33:45.439Z,30.30
2019-05-18T13:38:52.437Z,30.30
2019-05-18T13:43:59.561Z,29.69
2019-05-18T13:49:08.250Z,28.71
2019-05-18T13:54:14.281Z,28.71
2019-05-18T13:59:21.512Z,27.81
2019-05-18T14:04:28.561Z,27.47
2019-05-18T14:09:35.452Z,26.07
2019-05-18T14:14:42.527Z,26.07
2019-05-18T14:19:50.630Z,25.37
2019-05-18T14:24:57.552Z,25.27
2019-05-18T14:30:04.595Z,25.27
2019-05-18T14:35:12.594Z,23.72
2019-05-18T14:40:20.227Z,22.99
2019-05-18T14:45:26.294Z,22.99
2019-05-18T14:50:32.498Z,22.46
2019-05-18T14:55:39.629Z,22.19
2019-05-18T15:00:46.697Z,22.26
2019-05-18T15:05:53.562Z,22.52
2019-05-18T15:11:00.578Z,21.86
2019-05-18T15:16:07.566Z,20.98
2019-05-18T15:21:14.935Z,20.20
2019-05-18T15:26:22.595Z,20.20
2019-05-18T15:31:29.593Z,19.44
2019-05-18T15:36:36.545Z,18.55
2019-05-18T15:41:43.475Z,18.55
2019-05-18T15:46:50.483Z,18.05
2019-05-18T15:51:57.453Z,17.88
2019-05-18T15:57:04.721Z,17.29
2019-05-18T16:02:12.101Z,17.30
2019-05-18T16:07:19.589Z,17.30
2019-05-18T16:12:26.547Z,16.95
2019-05-18T16:17:39.305Z,16.95
2019-05-18T16:22:44.429Z,16.88
2019-05-18T16:27:51.458Z,17.50
2019-05-18T16:32:58.446Z,17.46
2019-05-18T16:38:05.575Z,17.37
2019-05-18T16:43:12.468Z,17.42
2019-05-18T16:48:19.467Z,17.42
2019-05-18T16:53:26.766Z,17.56
2019-05-18T16:58:33.936Z,17.69
2019-05-18T17:03:42.286Z,17.48
2019-05-18T17:08:49.462Z,17.52
2019-05-18T17:15:19.486Z,18.73
2019-05-18T17:20:26.543Z,18.19
2019-05-18T17:30:42.773Z,18.24
2019-05-18T17:35:59.815Z,19.02
2019-05-18T17:41:00.605Z,19.57
2019-05-18T17:46:07.543Z,21.55
2019-05-18T17:51:14.595Z,21.55
2019-05-18T17:56:21.600Z,23.78
2019-05-18T18:01:28.444Z,24.75
2019-05-18T18:06:35.604Z,24.75
2019-05-18T18:11:42.652Z,25.91
2019-05-18T18:16:53.573Z,27.86
2019-05-18T18:22:00.674Z,28.47
2019-05-18T18:27:22.587Z,28.47
2019-05-18T18:32:16.556Z,28.87
2019-05-18T18:37:23.492Z,30.01
2019-05-18T18:42:30.658Z,30.01
2019-05-18T18:47:37.609Z,31.26
2019-05-18T18:52:44.510Z,32.04
2019-05-18T18:57:51.465Z,32.04
2019-05-18T19:02:58.602Z,32.81
2019-05-18T19:08:05.583Z,35.41
2019-05-18T19:13:12.563Z,36.29
2019-05-18T19:18:19.497Z,36.92
2019-05-18T19:23:26.593Z,36.92
2019-05-18T19:28:33.607Z,37.36
2019-05-18T19:33:43.273Z,38.38
2019-05-18T19:38:50.499Z,38.38
2019-05-18T19:43:57.478Z,38.80
2019-05-18T19:49:04.489Z,40.03
2019-05-18T19:54:11.579Z,40.74
2019-05-18T19:59:20.609Z,41.96
2019-05-18T20:04:28.950Z,43.66
2019-05-18T20:09:37.309Z,43.66
2019-05-18T20:14:48.677Z,44.50
2019-05-18T20:19:57.148Z,44.75
2019-05-18T20:25:03.331Z,44.75
2019-05-18T20:30:09.554Z,45.47
2019-05-18T20:35:18.094Z,45.98
2019-05-18T20:40:25.276Z,46.82
2019-05-18T20:45:31.320Z,47.41
2019-05-18T20:50:37.269Z,48.06
2019-05-18T20:55:44.442Z,48.56
2019-05-18T21:00:52.593Z,49.59
2019-05-18T21:05:59.565Z,49.54
2019-05-18T21:11:06.621Z,49.54
2019-05-18T21:16:13.557Z,50.50
2019-05-18T21:21:25.715Z,50.50
2019-05-18T21:26:29.465Z,50.94
2019-05-18T21:31:36.565Z,51.46
2019-05-18T21:36:43.605Z,51.95
2019-05-18T21:41:50.604Z,52.84
2019-05-18T21:46:57.550Z,53.23
2019-05-18T21:52:04.544Z,53.60
2019-05-18T21:57:11.606Z,53.60
2019-05-18T22:02:19.085Z,54.33
2019-05-18T22:07:27.319Z,54.33
2019-05-18T22:12:35.712Z,54.45
2019-05-18T22:18:00.392Z,54.69
2019-05-18T22:23:07.602Z,55.23
2019-05-18T22:28:14.589Z,55.74
2019-05-18T22:33:21.587Z,56.73
2019-05-18T22:38:28.621Z,56.98
2019-05-18T22:43:35.593Z,57.39
2019-05-18T22:48:42.585Z,58.00
2019-05-18T22:53:49.585Z,58.35
2019-05-18T22:58:56.590Z,58.64
2019-05-18T23:04:03.577Z,58.80
2019-05-18T23:09:10.574Z,59.15
2019-05-18T23:14:17.552Z,59.56
2019-05-18T23:19:24.577Z,59.97
2019-05-18T23:24:31.494Z,60.23
2019-05-18T23:29:38.491Z,60.23
2019-05-18T23:34:45.459Z,60.73
2019-05-18T23:39:52.475Z,60.73
2019-05-18T23:44:59.456Z,61.07
2019-05-18T23:50:07.595Z,61.33
2019-05-18T23:55:14.736Z,61.97
